sensor_id;sensor_type;location;lat;lon;timestamp;P1;durP1;ratioP1;P2;durP2;ratioP2
51814;SDS011;37874;53.158;6.766;2023-11-19T00:00:04;1.52;;;0.80;;
51814;SDS011;37874;53.158;6.766;2023-11-19T00:02:31;1.17;;;0.60;;
51814;SDS011;37874;53.158;6.766;2023-11-19T00:04:57;1.73;;;0.80;;
51814;SDS011;37874;53.158;6.766;2023-11-19T00:07:23;2.13;;;0.85;;
51814;SDS011;37874;53.158;6.766;2023-11-19T00:09:49;2.00;;;0.90;;
51814;SDS011;37874;53.158;6.766;2023-11-19T00:12:15;1.10;;;0.70;;
51814;SDS011;37874;53.158;6.766;2023-11-19T00:14:41;1.63;;;0.70;;
51814;SDS011;37874;53.158;6.766;2023-11-19T00:17:07;1.27;;;0.70;;
51814;SDS011;37874;53.158;6.766;2023-11-19T00:19:33;1.40;;;0.85;;
51814;SDS011;37874;53.158;6.766;2023-11-19T00:21:59;1.90;;;0.90;;
51814;SDS011;37874;53.158;6.766;2023-11-19T00:24:28;1.48;;;0.70;;
51814;SDS011;37874;53.158;6.766;2023-11-19T00:26:54;1.90;;;0.80;;
51814;SDS011;37874;53.158;6.766;2023-11-19T00:29:20;2.15;;;0.80;;
51814;SDS011;37874;53.158;6.766;2023-11-19T00:31:46;1.58;;;0.80;;
51814;SDS011;37874;53.158;6.766;2023-11-19T00:34:12;1.83;;;0.70;;
51814;SDS011;37874;53.158;6.766;2023-11-19T00:36:38;1.90;;;0.88;;
51814;SDS011;37874;53.158;6.766;2023-11-19T00:39:04;1.95;;;0.73;;
51814;SDS011;37874;53.158;6.766;2023-11-19T00:41:31;1.35;;;0.63;;
51814;SDS011;37874;53.158;6.766;2023-11-19T00:43:56;2.35;;;1.00;;
51814;SDS011;37874;53.158;6.766;2023-11-19T00:46:22;1.95;;;0.77;;
51814;SDS011;37874;53.158;6.766;2023-11-19T00:48:48;1.75;;;0.80;;
51814;SDS011;37874;53.158;6.766;2023-11-19T00:51:14;3.80;;;0.90;;
51814;SDS011;37874;53.158;6.766;2023-11-19T00:53:40;2.08;;;0.80;;
51814;SDS011;37874;53.158;6.766;2023-11-19T00:56:06;1.50;;;0.73;;
51814;SDS011;37874;53.158;6.766;2023-11-19T00:58:32;1.77;;;0.70;;
51814;SDS011;37874;53.158;6.766;2023-11-19T01:00:58;2.53;;;0.88;;
51814;SDS011;37874;53.158;6.766;2023-11-19T01:03:25;1.48;;;0.70;;
51814;SDS011;37874;53.158;6.766;2023-11-19T01:05:51;2.67;;;0.95;;
51814;SDS011;37874;53.158;6.766;2023-11-19T01:08:17;3.53;;;0.90;;
51814;SDS011;37874;53.158;6.766;2023-11-19T01:10:44;1.63;;;0.68;;
51814;SDS011;37874;53.158;6.766;2023-11-19T01:13:10;3.60;;;1.10;;
51814;SDS011;37874;53.158;6.766;2023-11-19T01:15:36;3.05;;;1.13;;
51814;SDS011;37874;53.158;6.766;2023-11-19T01:18:02;3.45;;;0.93;;
51814;SDS011;37874;53.158;6.766;2023-11-19T01:20:30;4.60;;;1.13;;
51814;SDS011;37874;53.158;6.766;2023-11-19T01:22:55;4.40;;;1.10;;
51814;SDS011;37874;53.158;6.766;2023-11-19T01:25:21;3.80;;;1.00;;
51814;SDS011;37874;53.158;6.766;2023-11-19T01:27:47;3.25;;;1.10;;
51814;SDS011;37874;53.158;6.766;2023-11-19T01:30:15;4.85;;;1.17;;
51814;SDS011;37874;53.158;6.766;2023-11-19T01:32:40;4.55;;;1.17;;
51814;SDS011;37874;53.158;6.766;2023-11-19T01:35:07;3.97;;;1.02;;
51814;SDS011;37874;53.158;6.766;2023-11-19T01:37:33;3.28;;;0.93;;
51814;SDS011;37874;53.158;6.766;2023-11-19T01:40:02;4.88;;;1.30;;
51814;SDS011;37874;53.158;6.766;2023-11-19T01:42:37;3.20;;;1.10;;
51814;SDS011;37874;53.158;6.766;2023-11-19T01:45:06;4.88;;;1.20;;
51814;SDS011;37874;53.158;6.766;2023-11-19T01:47:34;4.90;;;1.10;;
51814;SDS011;37874;53.158;6.766;2023-11-19T01:50:01;4.30;;;1.20;;
51814;SDS011;37874;53.158;6.766;2023-11-19T01:52:34;5.25;;;0.95;;
51814;SDS011;37874;53.158;6.766;2023-11-19T01:55:04;4.43;;;1.27;;
51814;SDS011;37874;53.158;6.766;2023-11-19T01:57:31;4.57;;;1.10;;
51814;SDS011;37874;53.158;6.766;2023-11-19T01:59:57;6.22;;;1.30;;
51814;SDS011;37874;53.158;6.766;2023-11-19T02:02:23;4.60;;;1.40;;
51814;SDS011;37874;53.158;6.766;2023-11-19T02:04:51;5.70;;;1.30;;
51814;SDS011;37874;53.158;6.766;2023-11-19T02:07:18;4.88;;;1.17;;
51814;SDS011;37874;53.158;6.766;2023-11-19T02:09:44;3.25;;;0.95;;
51814;SDS011;37874;53.158;6.766;2023-11-19T02:12:10;4.97;;;1.20;;
51814;SDS011;37874;53.158;6.766;2023-11-19T02:14:40;5.18;;;1.20;;
51814;SDS011;37874;53.158;6.766;2023-11-19T02:17:06;8.50;;;1.95;;
51814;SDS011;37874;53.158;6.766;2023-11-19T02:19:32;4.38;;;1.10;;
51814;SDS011;37874;53.158;6.766;2023-11-19T02:21:58;3.47;;;1.33;;
51814;SDS011;37874;53.158;6.766;2023-11-19T02:24:26;4.75;;;1.23;;
51814;SDS011;37874;53.158;6.766;2023-11-19T02:29:27;5.28;;;1.50;;
51814;SDS011;37874;53.158;6.766;2023-11-19T02:31:53;4.68;;;1.45;;
51814;SDS011;37874;53.158;6.766;2023-11-19T02:34:20;7.40;;;1.70;;
51814;SDS011;37874;53.158;6.766;2023-11-19T02:36:47;5.38;;;1.42;;
51814;SDS011;37874;53.158;6.766;2023-11-19T02:39:12;4.82;;;1.40;;
51814;SDS011;37874;53.158;6.766;2023-11-19T02:41:38;7.18;;;1.88;;
51814;SDS011;37874;53.158;6.766;2023-11-19T02:44:05;4.53;;;1.15;;
51814;SDS011;37874;53.158;6.766;2023-11-19T02:46:31;5.32;;;1.42;;
51814;SDS011;37874;53.158;6.766;2023-11-19T02:48:57;5.47;;;1.48;;
51814;SDS011;37874;53.158;6.766;2023-11-19T02:51:23;4.35;;;1.60;;
51814;SDS011;37874;53.158;6.766;2023-11-19T02:53:49;6.50;;;1.55;;
51814;SDS011;37874;53.158;6.766;2023-11-19T02:56:15;6.00;;;1.35;;
51814;SDS011;37874;53.158;6.766;2023-11-19T02:58:50;6.93;;;1.70;;
51814;SDS011;37874;53.158;6.766;2023-11-19T03:01:25;7.10;;;1.73;;
51814;SDS011;37874;53.158;6.766;2023-11-19T03:03:57;6.53;;;1.58;;
51814;SDS011;37874;53.158;6.766;2023-11-19T03:06:23;5.95;;;1.58;;
51814;SDS011;37874;53.158;6.766;2023-11-19T03:08:50;6.03;;;1.77;;
51814;SDS011;37874;53.158;6.766;2023-11-19T03:11:16;6.28;;;1.80;;
51814;SDS011;37874;53.158;6.766;2023-11-19T03:13:41;6.30;;;1.83;;
51814;SDS011;37874;53.158;6.766;2023-11-19T03:16:07;7.68;;;1.58;;
51814;SDS011;37874;53.158;6.766;2023-11-19T03:18:33;9.35;;;2.13;;
51814;SDS011;37874;53.158;6.766;2023-11-19T03:20:59;9.38;;;1.90;;
51814;SDS011;37874;53.158;6.766;2023-11-19T03:23:25;6.65;;;1.50;;
51814;SDS011;37874;53.158;6.766;2023-11-19T03:25:53;8.00;;;2.00;;
51814;SDS011;37874;53.158;6.766;2023-11-19T03:28:19;7.57;;;2.15;;
51814;SDS011;37874;53.158;6.766;2023-11-19T03:30:45;7.53;;;1.67;;
51814;SDS011;37874;53.158;6.766;2023-11-19T03:33:11;6.95;;;1.70;;
51814;SDS011;37874;53.158;6.766;2023-11-19T03:35:37;8.10;;;2.00;;
51814;SDS011;37874;53.158;6.766;2023-11-19T03:38:03;9.07;;;2.05;;
51814;SDS011;37874;53.158;6.766;2023-11-19T03:40:28;9.88;;;2.05;;
51814;SDS011;37874;53.158;6.766;2023-11-19T03:42:58;12.88;;;1.95;;
51814;SDS011;37874;53.158;6.766;2023-11-19T03:45:24;8.82;;;1.85;;
51814;SDS011;37874;53.158;6.766;2023-11-19T03:47:50;6.88;;;2.22;;
51814;SDS011;37874;53.158;6.766;2023-11-19T03:50:16;7.95;;;2.10;;
51814;SDS011;37874;53.158;6.766;2023-11-19T03:52:45;8.63;;;2.30;;
51814;SDS011;37874;53.158;6.766;2023-11-19T03:55:11;8.18;;;2.05;;
51814;SDS011;37874;53.158;6.766;2023-11-19T03:57:38;9.25;;;2.28;;
51814;SDS011;37874;53.158;6.766;2023-11-19T04:00:04;9.80;;;2.30;;
51814;SDS011;37874;53.158;6.766;2023-11-19T04:02:39;10.80;;;2.22;;
51814;SDS011;37874;53.158;6.766;2023-11-19T04:05:05;8.45;;;2.00;;
51814;SDS011;37874;53.158;6.766;2023-11-19T04:07:32;9.13;;;2.33;;
51814;SDS011;37874;53.158;6.766;2023-11-19T04:09:58;10.70;;;2.47;;
51814;SDS011;37874;53.158;6.766;2023-11-19T04:12:24;9.48;;;2.28;;
51814;SDS011;37874;53.158;6.766;2023-11-19T04:14:50;9.93;;;2.53;;
51814;SDS011;37874;53.158;6.766;2023-11-19T04:17:16;7.47;;;1.98;;
51814;SDS011;37874;53.158;6.766;2023-11-19T04:19:42;8.98;;;2.30;;
51814;SDS011;37874;53.158;6.766;2023-11-19T04:22:08;10.68;;;2.58;;
51814;SDS011;37874;53.158;6.766;2023-11-19T04:24:34;6.88;;;1.95;;
51814;SDS011;37874;53.158;6.766;2023-11-19T04:27:00;10.88;;;2.30;;
51814;SDS011;37874;53.158;6.766;2023-11-19T04:29:26;6.90;;;1.90;;
51814;SDS011;37874;53.158;6.766;2023-11-19T04:31:52;8.63;;;2.42;;
51814;SDS011;37874;53.158;6.766;2023-11-19T04:34:18;7.25;;;2.45;;
51814;SDS011;37874;53.158;6.766;2023-11-19T04:36:44;7.38;;;2.10;;
51814;SDS011;37874;53.158;6.766;2023-11-19T04:39:10;11.13;;;2.85;;
51814;SDS011;37874;53.158;6.766;2023-11-19T04:41:45;8.05;;;2.35;;
51814;SDS011;37874;53.158;6.766;2023-11-19T04:44:14;11.25;;;2.55;;
51814;SDS011;37874;53.158;6.766;2023-11-19T04:46:41;11.63;;;2.72;;
51814;SDS011;37874;53.158;6.766;2023-11-19T04:49:09;11.55;;;2.50;;
51814;SDS011;37874;53.158;6.766;2023-11-19T04:51:41;10.93;;;2.63;;
51814;SDS011;37874;53.158;6.766;2023-11-19T04:54:09;9.57;;;2.28;;
51814;SDS011;37874;53.158;6.766;2023-11-19T04:56:38;9.18;;;2.47;;
51814;SDS011;37874;53.158;6.766;2023-11-19T04:59:05;10.85;;;2.60;;
51814;SDS011;37874;53.158;6.766;2023-11-19T05:01:32;7.85;;;2.38;;
51814;SDS011;37874;53.158;6.766;2023-11-19T05:03:58;8.95;;;2.20;;
51814;SDS011;37874;53.158;6.766;2023-11-19T05:06:28;10.95;;;2.75;;
51814;SDS011;37874;53.158;6.766;2023-11-19T05:08:54;9.32;;;2.53;;
51814;SDS011;37874;53.158;6.766;2023-11-19T05:11:21;10.38;;;2.70;;
51814;SDS011;37874;53.158;6.766;2023-11-19T05:13:47;10.20;;;2.60;;
51814;SDS011;37874;53.158;6.766;2023-11-19T05:16:13;14.35;;;3.25;;
51814;SDS011;37874;53.158;6.766;2023-11-19T05:18:40;11.05;;;2.80;;
51814;SDS011;37874;53.158;6.766;2023-11-19T05:21:06;8.30;;;2.55;;
51814;SDS011;37874;53.158;6.766;2023-11-19T05:23:32;10.75;;;2.90;;
51814;SDS011;37874;53.158;6.766;2023-11-19T05:26:01;11.38;;;2.80;;
51814;SDS011;37874;53.158;6.766;2023-11-19T05:28:27;8.57;;;2.70;;
51814;SDS011;37874;53.158;6.766;2023-11-19T05:30:54;7.75;;;2.55;;
51814;SDS011;37874;53.158;6.766;2023-11-19T05:33:20;13.15;;;3.20;;
51814;SDS011;37874;53.158;6.766;2023-11-19T05:35:46;12.75;;;3.25;;
51814;SDS011;37874;53.158;6.766;2023-11-19T05:38:12;10.25;;;3.00;;
51814;SDS011;37874;53.158;6.766;2023-11-19T05:40:38;11.60;;;2.80;;
51814;SDS011;37874;53.158;6.766;2023-11-19T05:43:04;12.38;;;3.10;;
51814;SDS011;37874;53.158;6.766;2023-11-19T05:45:31;14.10;;;3.08;;
51814;SDS011;37874;53.158;6.766;2023-11-19T05:47:57;11.20;;;3.03;;
51814;SDS011;37874;53.158;6.766;2023-11-19T05:50:23;11.80;;;3.05;;
51814;SDS011;37874;53.158;6.766;2023-11-19T05:52:49;13.23;;;3.05;;
51814;SDS011;37874;53.158;6.766;2023-11-19T05:55:18;12.90;;;3.05;;
51814;SDS011;37874;53.158;6.766;2023-11-19T05:57:44;9.63;;;2.97;;
51814;SDS011;37874;53.158;6.766;2023-11-19T06:00:10;9.07;;;2.80;;
51814;SDS011;37874;53.158;6.766;2023-11-19T06:02:38;10.55;;;2.88;;
51814;SDS011;37874;53.158;6.766;2023-11-19T06:05:04;10.88;;;3.00;;
51814;SDS011;37874;53.158;6.766;2023-11-19T06:07:34;10.60;;;3.05;;
51814;SDS011;37874;53.158;6.766;2023-11-19T06:10:02;10.90;;;2.85;;
51814;SDS011;37874;53.158;6.766;2023-11-19T06:12:30;11.57;;;2.78;;
51814;SDS011;37874;53.158;6.766;2023-11-19T06:14:59;11.77;;;2.67;;
51814;SDS011;37874;53.158;6.766;2023-11-19T06:17:25;13.27;;;3.72;;
51814;SDS011;37874;53.158;6.766;2023-11-19T06:19:51;9.60;;;2.90;;
51814;SDS011;37874;53.158;6.766;2023-11-19T06:22:17;15.05;;;3.35;;
51814;SDS011;37874;53.158;6.766;2023-11-19T06:24:43;10.05;;;3.35;;
51814;SDS011;37874;53.158;6.766;2023-11-19T06:27:09;11.18;;;2.92;;
51814;SDS011;37874;53.158;6.766;2023-11-19T06:29:35;10.80;;;2.65;;
51814;SDS011;37874;53.158;6.766;2023-11-19T06:32:01;8.85;;;2.97;;
51814;SDS011;37874;53.158;6.766;2023-11-19T06:34:27;14.02;;;3.10;;
51814;SDS011;37874;53.158;6.766;2023-11-19T06:36:53;11.88;;;2.70;;
51814;SDS011;37874;53.158;6.766;2023-11-19T06:39:19;11.57;;;3.00;;
51814;SDS011;37874;53.158;6.766;2023-11-19T06:41:45;12.98;;;3.47;;
51814;SDS011;37874;53.158;6.766;2023-11-19T06:44:11;12.45;;;3.25;;
51814;SDS011;37874;53.158;6.766;2023-11-19T06:46:38;13.40;;;3.00;;
51814;SDS011;37874;53.158;6.766;2023-11-19T06:49:04;12.15;;;3.22;;
51814;SDS011;37874;53.158;6.766;2023-11-19T06:51:30;12.05;;;3.00;;
51814;SDS011;37874;53.158;6.766;2023-11-19T06:53:56;10.10;;;2.95;;
51814;SDS011;37874;53.158;6.766;2023-11-19T06:56:23;12.02;;;3.25;;
51814;SDS011;37874;53.158;6.766;2023-11-19T06:58:51;10.73;;;2.70;;
51814;SDS011;37874;53.158;6.766;2023-11-19T07:01:18;11.88;;;3.25;;
51814;SDS011;37874;53.158;6.766;2023-11-19T07:03:45;9.85;;;3.08;;
51814;SDS011;37874;53.158;6.766;2023-11-19T07:06:14;11.80;;;2.92;;
51814;SDS011;37874;53.158;6.766;2023-11-19T07:08:43;12.07;;;3.13;;
51814;SDS011;37874;53.158;6.766;2023-11-19T07:11:13;12.68;;;3.20;;
51814;SDS011;37874;53.158;6.766;2023-11-19T07:13:42;13.20;;;3.20;;
51814;SDS011;37874;53.158;6.766;2023-11-19T07:16:08;10.15;;;2.97;;
51814;SDS011;37874;53.158;6.766;2023-11-19T07:18:37;12.82;;;3.78;;
51814;SDS011;37874;53.158;6.766;2023-11-19T07:21:04;13.48;;;3.25;;
51814;SDS011;37874;53.158;6.766;2023-11-19T07:23:30;8.90;;;2.80;;
51814;SDS011;37874;53.158;6.766;2023-11-19T07:25:56;11.77;;;3.20;;
51814;SDS011;37874;53.158;6.766;2023-11-19T07:28:24;12.73;;;3.40;;
51814;SDS011;37874;53.158;6.766;2023-11-19T07:30:50;9.18;;;2.60;;
51814;SDS011;37874;53.158;6.766;2023-11-19T07:33:16;8.38;;;2.40;;
51814;SDS011;37874;53.158;6.766;2023-11-19T07:35:42;10.18;;;3.13;;
51814;SDS011;37874;53.158;6.766;2023-11-19T07:38:09;11.15;;;2.88;;
51814;SDS011;37874;53.158;6.766;2023-11-19T07:40:35;12.88;;;3.45;;
51814;SDS011;37874;53.158;6.766;2023-11-19T07:43:00;12.55;;;3.08;;
51814;SDS011;37874;53.158;6.766;2023-11-19T07:45:26;14.73;;;2.90;;
51814;SDS011;37874;53.158;6.766;2023-11-19T07:47:52;12.05;;;3.53;;
51814;SDS011;37874;53.158;6.766;2023-11-19T07:50:19;15.13;;;3.10;;
51814;SDS011;37874;53.158;6.766;2023-11-19T07:52:48;15.07;;;3.42;;
51814;SDS011;37874;53.158;6.766;2023-11-19T07:55:14;11.57;;;3.30;;
51814;SDS011;37874;53.158;6.766;2023-11-19T07:57:40;13.25;;;3.05;;
51814;SDS011;37874;53.158;6.766;2023-11-19T08:00:06;11.40;;;3.38;;
51814;SDS011;37874;53.158;6.766;2023-11-19T08:02:37;13.35;;;3.17;;
51814;SDS011;37874;53.158;6.766;2023-11-19T08:05:04;12.13;;;3.10;;
51814;SDS011;37874;53.158;6.766;2023-11-19T08:07:30;10.98;;;3.13;;
51814;SDS011;37874;53.158;6.766;2023-11-19T08:09:56;10.02;;;2.83;;
51814;SDS011;37874;53.158;6.766;2023-11-19T08:12:22;9.80;;;3.13;;
51814;SDS011;37874;53.158;6.766;2023-11-19T08:14:48;9.93;;;3.25;;
51814;SDS011;37874;53.158;6.766;2023-11-19T08:17:14;10.48;;;2.90;;
51814;SDS011;37874;53.158;6.766;2023-11-19T08:19:41;11.32;;;3.10;;
51814;SDS011;37874;53.158;6.766;2023-11-19T08:22:07;10.18;;;3.00;;
51814;SDS011;37874;53.158;6.766;2023-11-19T08:24:34;11.00;;;3.03;;
51814;SDS011;37874;53.158;6.766;2023-11-19T08:27:00;10.25;;;2.95;;
51814;SDS011;37874;53.158;6.766;2023-11-19T08:29:26;11.05;;;2.45;;
51814;SDS011;37874;53.158;6.766;2023-11-19T08:31:52;11.45;;;2.85;;
51814;SDS011;37874;53.158;6.766;2023-11-19T08:34:18;11.93;;;3.40;;
51814;SDS011;37874;53.158;6.766;2023-11-19T08:36:44;13.18;;;2.80;;
51814;SDS011;37874;53.158;6.766;2023-11-19T08:39:10;13.68;;;3.25;;
51814;SDS011;37874;53.158;6.766;2023-11-19T08:41:36;12.40;;;3.17;;
51814;SDS011;37874;53.158;6.766;2023-11-19T08:44:03;10.23;;;3.05;;
51814;SDS011;37874;53.158;6.766;2023-11-19T08:46:29;13.38;;;2.95;;
51814;SDS011;37874;53.158;6.766;2023-11-19T08:48:55;10.30;;;3.10;;
51814;SDS011;37874;53.158;6.766;2023-11-19T08:51:22;13.10;;;3.70;;
51814;SDS011;37874;53.158;6.766;2023-11-19T08:53:50;12.57;;;3.28;;
51814;SDS011;37874;53.158;6.766;2023-11-19T08:56:15;8.43;;;2.53;;
51814;SDS011;37874;53.158;6.766;2023-11-19T08:58:42;9.45;;;2.78;;
51814;SDS011;37874;53.158;6.766;2023-11-19T09:01:11;11.93;;;3.03;;
51814;SDS011;37874;53.158;6.766;2023-11-19T09:03:36;11.10;;;2.78;;
51814;SDS011;37874;53.158;6.766;2023-11-19T09:06:02;11.38;;;2.97;;
51814;SDS011;37874;53.158;6.766;2023-11-19T09:08:28;9.13;;;2.70;;
51814;SDS011;37874;53.158;6.766;2023-11-19T09:10:54;8.80;;;2.60;;
51814;SDS011;37874;53.158;6.766;2023-11-19T09:13:20;10.63;;;3.05;;
51814;SDS011;37874;53.158;6.766;2023-11-19T09:15:46;9.98;;;2.72;;
51814;SDS011;37874;53.158;6.766;2023-11-19T09:18:12;10.65;;;2.78;;
51814;SDS011;37874;53.158;6.766;2023-11-19T09:20:38;11.25;;;2.63;;
51814;SDS011;37874;53.158;6.766;2023-11-19T09:23:04;12.98;;;3.17;;
51814;SDS011;37874;53.158;6.766;2023-11-19T09:25:31;9.48;;;2.85;;
51814;SDS011;37874;53.158;6.766;2023-11-19T09:27:57;13.20;;;3.60;;
51814;SDS011;37874;53.158;6.766;2023-11-19T09:30:23;10.43;;;2.60;;
51814;SDS011;37874;53.158;6.766;2023-11-19T09:32:49;10.93;;;2.70;;
51814;SDS011;37874;53.158;6.766;2023-11-19T09:35:15;10.23;;;2.60;;
51814;SDS011;37874;53.158;6.766;2023-11-19T09:37:41;15.32;;;3.00;;
51814;SDS011;37874;53.158;6.766;2023-11-19T09:40:08;12.65;;;3.03;;
51814;SDS011;37874;53.158;6.766;2023-11-19T09:42:39;10.55;;;2.58;;
51814;SDS011;37874;53.158;6.766;2023-11-19T09:45:15;8.65;;;2.70;;
51814;SDS011;37874;53.158;6.766;2023-11-19T09:47:44;9.88;;;2.70;;
51814;SDS011;37874;53.158;6.766;2023-11-19T09:50:18;10.07;;;2.25;;
51814;SDS011;37874;53.158;6.766;2023-11-19T09:52:48;12.90;;;3.23;;
51814;SDS011;37874;53.158;6.766;2023-11-19T09:55:14;11.18;;;2.78;;
51814;SDS011;37874;53.158;6.766;2023-11-19T09:57:40;10.52;;;3.30;;
51814;SDS011;37874;53.158;6.766;2023-11-19T10:00:07;9.23;;;2.38;;
51814;SDS011;37874;53.158;6.766;2023-11-19T10:02:36;9.52;;;2.75;;
51814;SDS011;37874;53.158;6.766;2023-11-19T10:05:04;10.50;;;2.72;;
51814;SDS011;37874;53.158;6.766;2023-11-19T10:07:40;13.05;;;3.35;;
51814;SDS011;37874;53.158;6.766;2023-11-19T10:10:06;12.23;;;2.90;;
51814;SDS011;37874;53.158;6.766;2023-11-19T10:12:32;10.98;;;3.28;;
51814;SDS011;37874;53.158;6.766;2023-11-19T10:14:58;11.20;;;2.88;;
51814;SDS011;37874;53.158;6.766;2023-11-19T10:17:28;10.85;;;2.88;;
51814;SDS011;37874;53.158;6.766;2023-11-19T10:19:59;11.02;;;3.28;;
51814;SDS011;37874;53.158;6.766;2023-11-19T10:22:25;11.50;;;3.17;;
51814;SDS011;37874;53.158;6.766;2023-11-19T10:24:57;9.57;;;3.17;;
51814;SDS011;37874;53.158;6.766;2023-11-19T10:27:24;11.90;;;3.13;;
51814;SDS011;37874;53.158;6.766;2023-11-19T10:29:53;11.20;;;3.30;;
51814;SDS011;37874;53.158;6.766;2023-11-19T10:32:19;10.35;;;3.35;;
51814;SDS011;37874;53.158;6.766;2023-11-19T10:34:45;11.95;;;2.90;;
51814;SDS011;37874;53.158;6.766;2023-11-19T10:37:29;11.55;;;2.88;;
51814;SDS011;37874;53.158;6.766;2023-11-19T10:39:57;11.73;;;3.13;;
51814;SDS011;37874;53.158;6.766;2023-11-19T10:42:23;10.10;;;2.78;;
51814;SDS011;37874;53.158;6.766;2023-11-19T10:44:49;12.18;;;3.00;;
51814;SDS011;37874;53.158;6.766;2023-11-19T10:47:15;8.52;;;2.65;;
51814;SDS011;37874;53.158;6.766;2023-11-19T10:49:44;11.85;;;2.63;;
51814;SDS011;37874;53.158;6.766;2023-11-19T10:52:16;9.13;;;2.45;;
51814;SDS011;37874;53.158;6.766;2023-11-19T10:54:49;12.13;;;2.88;;
51814;SDS011;37874;53.158;6.766;2023-11-19T10:57:19;12.77;;;3.00;;
51814;SDS011;37874;53.158;6.766;2023-11-19T10:59:49;12.10;;;3.38;;
51814;SDS011;37874;53.158;6.766;2023-11-19T11:02:21;8.80;;;2.70;;
51814;SDS011;37874;53.158;6.766;2023-11-19T11:04:49;13.55;;;3.40;;
51814;SDS011;37874;53.158;6.766;2023-11-19T11:07:16;9.90;;;3.10;;
51814;SDS011;37874;53.158;6.766;2023-11-19T11:09:47;7.50;;;2.80;;
51814;SDS011;37874;53.158;6.766;2023-11-19T11:12:17;9.80;;;3.08;;
51814;SDS011;37874;53.158;6.766;2023-11-19T11:14:50;9.63;;;2.80;;
51814;SDS011;37874;53.158;6.766;2023-11-19T11:17:18;7.85;;;2.40;;
51814;SDS011;37874;53.158;6.766;2023-11-19T11:19:49;10.00;;;2.78;;
51814;SDS011;37874;53.158;6.766;2023-11-19T11:22:18;10.80;;;2.60;;
51814;SDS011;37874;53.158;6.766;2023-11-19T11:35:59;8.00;;;2.40;;
51814;SDS011;37874;53.158;6.766;2023-11-19T11:38:27;7.65;;;2.50;;
51814;SDS011;37874;53.158;6.766;2023-11-19T11:43:44;9.43;;;2.55;;
51814;SDS011;37874;53.158;6.766;2023-11-19T11:49:24;8.50;;;2.67;;
51814;SDS011;37874;53.158;6.766;2023-11-19T11:51:59;10.80;;;2.80;;
51814;SDS011;37874;53.158;6.766;2023-11-19T11:54:26;9.45;;;2.67;;
51814;SDS011;37874;53.158;6.766;2023-11-19T11:57:11;7.03;;;2.40;;
51814;SDS011;37874;53.158;6.766;2023-11-19T12:02:07;10.07;;;2.70;;
51814;SDS011;37874;53.158;6.766;2023-11-19T12:04:35;8.98;;;2.72;;
51814;SDS011;37874;53.158;6.766;2023-11-19T12:07:05;7.80;;;2.30;;
51814;SDS011;37874;53.158;6.766;2023-11-19T12:09:39;9.13;;;2.40;;
51814;SDS011;37874;53.158;6.766;2023-11-19T12:20:00;8.45;;;2.38;;
51814;SDS011;37874;53.158;6.766;2023-11-19T12:22:30;11.02;;;2.65;;
51814;SDS011;37874;53.158;6.766;2023-11-19T12:24:56;10.75;;;2.83;;
51814;SDS011;37874;53.158;6.766;2023-11-19T12:27:22;9.55;;;2.65;;
51814;SDS011;37874;53.158;6.766;2023-11-19T12:29:48;8.70;;;2.40;;
51814;SDS011;37874;53.158;6.766;2023-11-19T12:32:15;8.65;;;2.10;;
51814;SDS011;37874;53.158;6.766;2023-11-19T12:34:40;9.40;;;2.60;;
51814;SDS011;37874;53.158;6.766;2023-11-19T12:37:07;9.90;;;2.72;;
51814;SDS011;37874;53.158;6.766;2023-11-19T12:39:35;9.00;;;2.40;;
51814;SDS011;37874;53.158;6.766;2023-11-19T12:42:01;11.05;;;3.05;;
51814;SDS011;37874;53.158;6.766;2023-11-19T12:44:27;8.98;;;1.95;;
51814;SDS011;37874;53.158;6.766;2023-11-19T12:47:14;9.40;;;2.58;;
51814;SDS011;37874;53.158;6.766;2023-11-19T12:49:40;9.10;;;2.88;;
51814;SDS011;37874;53.158;6.766;2023-11-19T12:52:12;7.82;;;2.28;;
51814;SDS011;37874;53.158;6.766;2023-11-19T12:54:38;10.88;;;2.47;;
51814;SDS011;37874;53.158;6.766;2023-11-19T12:57:04;9.07;;;2.53;;
51814;SDS011;37874;53.158;6.766;2023-11-19T12:59:30;8.93;;;2.33;;
51814;SDS011;37874;53.158;6.766;2023-11-19T13:01:59;10.35;;;2.78;;
51814;SDS011;37874;53.158;6.766;2023-11-19T13:04:31;7.75;;;2.25;;
51814;SDS011;37874;53.158;6.766;2023-11-19T13:06:58;12.98;;;3.70;;
51814;SDS011;37874;53.158;6.766;2023-11-19T13:09:25;11.75;;;3.35;;
51814;SDS011;37874;53.158;6.766;2023-11-19T13:11:53;11.90;;;3.03;;
51814;SDS011;37874;53.158;6.766;2023-11-19T13:14:20;11.30;;;3.00;;
51814;SDS011;37874;53.158;6.766;2023-11-19T13:16:47;11.68;;;3.03;;
51814;SDS011;37874;53.158;6.766;2023-11-19T13:19:13;11.82;;;3.67;;
51814;SDS011;37874;53.158;6.766;2023-11-19T13:21:44;9.65;;;2.83;;
51814;SDS011;37874;53.158;6.766;2023-11-19T13:24:12;10.80;;;3.58;;
51814;SDS011;37874;53.158;6.766;2023-11-19T13:26:38;10.60;;;4.05;;
51814;SDS011;37874;53.158;6.766;2023-11-19T13:29:04;12.55;;;3.70;;
51814;SDS011;37874;53.158;6.766;2023-11-19T13:31:30;10.48;;;3.47;;
51814;SDS011;37874;53.158;6.766;2023-11-19T13:33:56;12.35;;;3.30;;
51814;SDS011;37874;53.158;6.766;2023-11-19T13:36:23;9.75;;;3.38;;
51814;SDS011;37874;53.158;6.766;2023-11-19T13:38:50;13.45;;;3.97;;
51814;SDS011;37874;53.158;6.766;2023-11-19T13:41:16;9.18;;;3.20;;
51814;SDS011;37874;53.158;6.766;2023-11-19T13:43:42;10.15;;;3.60;;
51814;SDS011;37874;53.158;6.766;2023-11-19T13:46:09;10.18;;;3.25;;
51814;SDS011;37874;53.158;6.766;2023-11-19T13:48:35;11.40;;;3.55;;
51814;SDS011;37874;53.158;6.766;2023-11-19T13:51:01;11.07;;;2.97;;
51814;SDS011;37874;53.158;6.766;2023-11-19T13:53:27;10.30;;;3.45;;
51814;SDS011;37874;53.158;6.766;2023-11-19T13:55:53;8.63;;;3.13;;
51814;SDS011;37874;53.158;6.766;2023-11-19T13:58:19;14.23;;;3.78;;
51814;SDS011;37874;53.158;6.766;2023-11-19T14:00:45;8.52;;;2.83;;
51814;SDS011;37874;53.158;6.766;2023-11-19T14:03:11;10.45;;;3.40;;
51814;SDS011;37874;53.158;6.766;2023-11-19T14:05:37;10.15;;;3.50;;
51814;SDS011;37874;53.158;6.766;2023-11-19T14:08:04;10.43;;;3.28;;
51814;SDS011;37874;53.158;6.766;2023-11-19T14:10:39;10.77;;;3.50;;
51814;SDS011;37874;53.158;6.766;2023-11-19T14:13:06;8.60;;;2.80;;
51814;SDS011;37874;53.158;6.766;2023-11-19T14:15:32;11.18;;;3.20;;
51814;SDS011;37874;53.158;6.766;2023-11-19T14:17:59;9.57;;;2.75;;
51814;SDS011;37874;53.158;6.766;2023-11-19T14:20:25;10.27;;;3.00;;
51814;SDS011;37874;53.158;6.766;2023-11-19T14:22:51;7.90;;;2.67;;
51814;SDS011;37874;53.158;6.766;2023-11-19T14:25:18;8.35;;;2.78;;
51814;SDS011;37874;53.158;6.766;2023-11-19T14:27:44;11.10;;;3.30;;
51814;SDS011;37874;53.158;6.766;2023-11-19T14:30:14;10.27;;;2.90;;
51814;SDS011;37874;53.158;6.766;2023-11-19T14:32:40;8.98;;;2.67;;
51814;SDS011;37874;53.158;6.766;2023-11-19T14:35:09;9.82;;;2.58;;
51814;SDS011;37874;53.158;6.766;2023-11-19T14:37:42;8.65;;;2.70;;
51814;SDS011;37874;53.158;6.766;2023-11-19T14:40:09;7.97;;;2.60;;
51814;SDS011;37874;53.158;6.766;2023-11-19T14:42:36;8.20;;;2.17;;
51814;SDS011;37874;53.158;6.766;2023-11-19T14:45:04;7.55;;;2.63;;
51814;SDS011;37874;53.158;6.766;2023-11-19T14:47:31;8.35;;;2.45;;
51814;SDS011;37874;53.158;6.766;2023-11-19T14:49:57;8.13;;;2.67;;
51814;SDS011;37874;53.158;6.766;2023-11-19T14:52:22;10.30;;;2.83;;
51814;SDS011;37874;53.158;6.766;2023-11-19T14:54:48;11.52;;;2.67;;
51814;SDS011;37874;53.158;6.766;2023-11-19T14:57:16;10.05;;;2.97;;
51814;SDS011;37874;53.158;6.766;2023-11-19T14:59:42;8.38;;;2.55;;
51814;SDS011;37874;53.158;6.766;2023-11-19T15:02:08;10.27;;;3.50;;
51814;SDS011;37874;53.158;6.766;2023-11-19T15:04:34;9.40;;;2.55;;
51814;SDS011;37874;53.158;6.766;2023-11-19T15:07:00;10.65;;;2.80;;
51814;SDS011;37874;53.158;6.766;2023-11-19T15:09:26;9.48;;;2.60;;